Time;durP1;ratioP1;P1;durP2;ratioP2;P2;SDS_P1;SDS_P2;PMS_P1;PMS_P2;Temp;Humidity;BMP_temperature;BMP_pressure;BME280_temperature;BME280_humidity;BME280_pressure;Samples;Min_cycle;Max_cycle;Signal;HPM_P1;HPM_P2
2022/07/25 00:02:25;;;;;;;7.35;3.00;;;;;;;21.26;81.30;100958.56;6202252;28;20046;-76
2022/07/25 00:05:26;;;;;;;4.13;3.05;;;;;;;21.25;81.20;100948.00;6200908;28;20050;-76
2022/07/25 00:08:28;;;;;;;5.88;2.95;;;;;;;21.22;81.06;100940.28;6201216;28;20050;-76
2022/07/25 00:11:31;;;;;;;4.28;2.92;;;;;;;21.21;80.51;100934.09;6200514;28;20602;-75
2022/07/25 00:14:32;;;;;;;5.10;2.70;;;;;;;21.20;79.26;100935.06;6200829;28;20426;-76
2022/07/25 00:17:33;;;;;;;3.15;2.58;;;;;;;21.21;79.30;100933.22;6200643;28;20050;-75
2022/07/25 00:20:35;;;;;;;6.07;3.10;;;;;;;21.17;78.71;100927.34;6200376;28;20058;-76
2022/07/25 00:23:36;;;;;;;3.97;2.80;;;;;;;21.17;78.61;100927.34;6200641;28;20077;-75
2022/07/25 00:26:39;;;;;;;7.65;3.20;;;;;;;21.15;77.84;100923.13;6200133;28;20410;-75
2022/07/25 00:29:40;;;;;;;3.88;2.42;;;;;;;21.14;76.85;100924.13;6200446;28;20057;-76
2022/07/25 00:32:41;;;;;;;5.03;3.13;;;;;;;21.12;77.01;100929.63;6202326;28;20050;-75
2022/07/25 00:35:43;;;;;;;6.70;3.50;;;;;;;21.06;77.53;100927.53;6200266;28;20054;-75
2022/07/25 00:38:44;;;;;;;5.18;3.03;;;;;;;21.03;78.40;100926.00;6200248;28;20050;-75
2022/07/25 00:41:47;;;;;;;6.30;2.72;;;;;;;21.01;78.08;100922.59;6200389;28;20050;-75
2022/07/25 00:44:49;;;;;;;3.80;2.90;;;;;;;20.99;76.72;100923.75;6199952;28;20054;-76
2022/07/25 00:47:50;;;;;;;5.70;2.65;;;;;;;21.02;75.46;100920.78;6199834;28;20414;-76
2022/07/25 00:50:51;;;;;;;4.85;2.85;;;;;;;21.05;74.77;100917.81;6199817;28;20057;-76
2022/07/25 00:53:53;;;;;;;4.03;2.70;;;;;;;21.11;74.49;100919.06;6199806;28;20054;-76
2022/07/25 00:56:55;;;;;;;6.90;3.00;;;;;;;21.13;74.24;100909.94;6208316;28;20056;-75
2022/07/25 00:59:57;;;;;;;5.97;2.53;;;;;;;21.16;73.61;100914.97;6239477;28;20683;-75
2022/07/25 01:02:58;;;;;;;3.55;2.45;;;;;;;21.18;72.85;100913.00;6238725;28;20050;-76
2022/07/25 01:06:00;;;;;;;4.03;2.70;;;;;;;21.19;72.45;100920.03;6246528;28;20050;-75
2022/07/25 01:09:01;;;;;;;6.47;2.55;;;;;;;21.19;71.96;100913.84;6234847;28;20048;-75
2022/07/25 01:12:05;;;;;;;5.00;2.47;;;;;;;21.18;72.40;100912.16;6248077;28;20098;-75
2022/07/25 01:15:08;;;;;;;4.05;2.30;;;;;;;21.17;72.26;100908.66;6248247;28;20045;-76
2022/07/25 01:18:09;;;;;;;3.75;2.65;;;;;;;21.12;72.92;100902.91;6247917;28;20045;-76
2022/07/25 01:21:13;;;;;;;3.55;2.63;;;;;;;21.09;72.92;100895.16;6243437;28;20048;-76
2022/07/25 01:24:14;;;;;;;6.85;2.78;;;;;;;21.05;73.44;100892.94;6244490;28;20053;-75
2022/07/25 01:27:16;;;;;;;3.15;2.80;;;;;;;21.02;73.51;100891.38;6244359;28;20042;-75
2022/07/25 01:30:17;;;;;;;6.43;2.78;;;;;;;20.95;74.02;100885.78;6239441;28;20054;-75
2022/07/25 01:33:20;;;;;;;2.65;2.22;;;;;;;20.91;73.97;100891.56;6214355;28;20066;-75
2022/07/25 01:36:23;;;;;;;4.47;2.95;;;;;;;20.89;74.60;100877.50;6198830;28;20189;-76
2022/07/25 01:39:24;;;;;;;3.63;2.90;;;;;;;20.87;74.63;100869.66;6198791;28;20434;-76
2022/07/25 01:42:26;;;;;;;4.68;2.28;;;;;;;20.85;74.89;100868.09;6198600;28;20054;-76
2022/07/25 01:45:28;;;;;;;4.65;2.72;;;;;;;20.85;75.05;100865.41;6198513;28;20212;-76
2022/07/25 01:48:29;;;;;;;5.45;2.75;;;;;;;20.84;74.74;100872.59;6198378;28;20051;-75
2022/07/25 01:51:32;;;;;;;4.47;2.75;;;;;;;20.84;74.75;100869.91;6198353;28;20054;-76
2022/07/25 01:54:33;;;;;;;2.70;2.35;;;;;;;20.86;74.22;100867.13;6198785;28;20053;-75
2022/07/25 01:57:35;;;;;;;4.30;2.40;;;;;;;20.82;73.83;100858.56;6198429;28;20450;-75
2022/07/25 02:00:36;;;;;;;4.53;2.50;;;;;;;20.82;73.91;100855.03;6199254;28;20050;-76
2022/07/25 02:03:38;;;;;;;6.13;2.47;;;;;;;20.77;74.13;100853.66;6220815;28;20057;-75
2022/07/25 02:06:41;;;;;;;4.05;2.22;;;;;;;20.77;74.04;100856.31;6222700;28;20143;-76
2022/07/25 02:09:42;;;;;;;4.18;2.40;;;;;;;20.78;73.87;100849.13;6222398;28;20176;-75
2022/07/25 02:12:43;;;;;;;3.45;2.50;;;;;;;20.77;73.69;100850.13;6222418;28;20050;-75
2022/07/25 02:15:45;;;;;;;4.93;2.38;;;;;;;20.76;73.71;100849.31;6221854;28;20414;-76
2022/07/25 02:18:46;;;;;;;4.18;2.70;;;;;;;20.77;72.99;100842.13;6222507;28;20513;-75
2022/07/25 02:21:49;;;;;;;3.92;2.33;;;;;;;20.76;72.96;100838.63;6222448;28;20046;-76
2022/07/25 02:24:50;;;;;;;4.57;2.30;;;;;;;20.77;72.59;100842.13;6222392;28;20430;-76
2022/07/25 02:27:52;;;;;;;3.10;2.00;;;;;;;20.74;72.05;100837.91;6222077;28;20415;-75
2022/07/25 02:30:53;;;;;;;4.00;2.35;;;;;;;20.74;71.31;100831.72;6221465;28;20061;-76
2022/07/25 02:33:55;;;;;;;3.00;2.25;;;;;;;20.70;71.28;100828.50;6197817;28;20054;-75
2022/07/25 02:36:57;;;;;;;4.70;2.40;;;;;;;20.72;70.65;100828.38;6197713;28;20057;-76
2022/07/25 02:39:59;;;;;;;3.42;2.40;;;;;;;20.72;70.16;100826.53;6198796;28;20053;-75
2022/07/25 02:43:00;;;;;;;3.45;2.03;;;;;;;20.71;69.70;100824.84;6197927;28;20061;-76
2022/07/25 02:46:01;;;;;;;2.85;1.98;;;;;;;20.69;69.97;100823.31;6197704;28;20050;-76
2022/07/25 02:49:03;;;;;;;3.97;2.50;;;;;;;20.64;69.89;100818.41;6197601;28;20054;-76
2022/07/25 02:52:06;;;;;;;5.88;2.38;;;;;;;20.60;70.62;100822.34;6197795;28;20055;-76
2022/07/25 02:55:08;;;;;;;3.35;2.35;;;;;;;20.59;71.13;100819.84;6197451;28;20047;-76
2022/07/25 02:58:10;;;;;;;5.55;2.97;;;;;;;20.55;71.22;100813.09;6217732;28;20053;-75
2022/07/25 03:01:12;;;;;;;3.55;1.77;;;;;;;20.54;70.55;100806.06;6225889;28;20053;-75
2022/07/25 03:04:13;;;;;;;2.92;2.03;;;;;;;20.51;70.37;100809.88;6235976;28;20048;-75
2022/07/25 03:07:16;;;;;;;3.20;2.10;;;;;;;20.48;70.25;100813.69;6237932;28;20060;-75
2022/07/25 03:10:17;;;;;;;4.18;2.50;;;;;;;20.46;70.40;100807.59;6233491;28;20049;-76
2022/07/25 03:13:19;;;;;;;4.63;2.25;;;;;;;20.43;70.45;100797.19;6243428;28;20061;-75
2022/07/25 03:16:20;;;;;;;3.42;2.35;;;;;;;20.42;70.35;100798.19;6227263;28;20427;-75
2022/07/25 03:19:21;;;;;;;5.40;2.17;;;;;;;20.40;70.81;100804.69;6221622;28;20046;-75
2022/07/25 03:22:25;;;;;;;2.85;1.98;;;;;;;20.35;71.42;100798.91;6221714;28;20050;-75
2022/07/25 03:25:26;;;;;;;3.90;2.35;;;;;;;20.32;71.78;100796.53;6229636;28;20046;-77
2022/07/25 03:28:27;;;;;;;2.95;2.38;;;;;;;20.26;71.65;100795.28;6248790;28;20050;-75
2022/07/25 03:31:29;;;;;;;2.70;1.90;;;;;;;20.22;71.89;100785.88;6241486;28;20045;-75
2022/07/25 03:34:30;;;;;;;4.50;2.83;;;;;;;20.18;72.32;100784.47;6247275;28;20718;-75
2022/07/25 03:37:33;;;;;;;4.03;2.45;;;;;;;20.13;72.35;100774.25;6226193;28;20057;-76
2022/07/25 03:40:35;;;;;;;4.50;2.30;;;;;;;20.10;72.94;100774.50;6225756;28;20054;-75
2022/07/25 03:43:37;;;;;;;3.38;2.28;;;;;;;20.07;74.26;100769.44;6225661;28;20077;-75
2022/07/25 03:46:38;;;;;;;3.33;2.38;;;;;;;20.00;74.04;100766.53;6213201;28;20049;-76
2022/07/25 03:49:39;;;;;;;2.90;2.15;;;;;;;19.96;74.55;100759.78;6211606;28;20043;-75
2022/07/25 03:52:42;;;;;;;2.38;1.83;;;;;;;19.93;74.98;100760.06;6205977;28;20058;-75
2022/07/25 03:55:43;;;;;;;4.35;2.42;;;;;;;19.89;75.60;100750.66;6210823;28;20050;-75
2022/07/25 03:58:45;;;;;;;4.35;2.33;;;;;;;19.86;76.36;100744.78;6212967;28;20045;-76
2022/07/25 04:01:48;;;;;;;3.50;2.50;;;;;;;19.85;76.12;100737.75;6211869;28;20042;-75
2022/07/25 04:04:50;;;;;;;3.55;2.38;;;;;;;19.83;76.34;100740.56;6211664;28;20418;-75
2022/07/25 04:07:53;;;;;;;3.85;2.17;;;;;;;19.84;76.48;100736.06;6215553;28;20513;-75
2022/07/25 04:10:54;;;;;;;7.88;2.25;;;;;;;19.85;75.86;100727.06;6211188;28;20046;-75
2022/07/25 04:13:55;;;;;;;2.67;1.83;;;;;;;19.87;75.10;100725.97;6212068;28;20056;-75
2022/07/25 04:16:57;;;;;;;2.88;2.10;;;;;;;19.89;74.75;100723.16;6211146;28;20058;-75
2022/07/25 04:19:58;;;;;;;3.38;2.00;;;;;;;19.91;74.19;100718.53;6211525;28;20053;-76
2022/07/25 04:23:01;;;;;;;4.70;2.28;;;;;;;19.92;73.59;100712.19;6211157;28;20058;-76
2022/07/25 04:26:02;;;;;;;2.80;1.83;;;;;;;19.95;73.32;100710.09;6211106;28;20061;-76
2022/07/25 04:29:04;;;;;;;2.35;1.80;;;;;;;19.96;72.59;100714.44;6211284;28;20046;-75
2022/07/25 04:32:06;;;;;;;3.03;2.15;;;;;;;19.99;72.70;100708.00;6210307;28;20517;-75
2022/07/25 04:35:08;;;;;;;3.97;2.22;;;;;;;20.01;72.83;100701.50;6211716;28;20498;-76
2022/07/25 04:38:11;;;;;;;5.40;2.03;;;;;;;20.04;73.77;100694.22;6209253;28;20049;-76
2022/07/25 04:41:13;;;;;;;2.67;1.80;;;;;;;20.05;74.05;100693.22;6209482;28;20049;-76
2022/07/25 04:44:14;;;;;;;4.38;2.10;;;;;;;20.06;74.19;100682.41;6211590;28;20042;-75
2022/07/25 04:47:15;;;;;;;3.58;1.73;;;;;;;20.08;74.27;100684.94;6209210;28;20053;-75
2022/07/25 04:50:17;;;;;;;4.38;1.95;;;;;;;20.10;74.25;100673.13;6200207;28;20046;-75
2022/07/25 04:53:19;;;;;;;2.80;2.13;;;;;;;20.13;74.56;100672.84;6199924;28;20054;-75
2022/07/25 04:56:21;;;;;;;2.72;2.33;;;;;;;20.18;74.89;100665.25;6199591;28;20050;-75
2022/07/25 04:59:22;;;;;;;3.05;2.03;;;;;;;20.21;74.92;100666.75;6232618;28;20042;-75
2022/07/25 05:02:24;;;;;;;2.67;1.80;;;;;;;20.28;74.67;100662.53;6237905;28;20493;-76
2022/07/25 05:05:26;;;;;;;3.42;1.80;;;;;;;20.32;73.91;100655.91;6240252;28;20049;-76
2022/07/25 05:08:29;;;;;;;2.78;1.80;;;;;;;20.41;73.74;100654.19;6242200;28;20049;-76
2022/07/25 05:11:30;;;;;;;2.80;1.67;;;;;;;20.50;73.36;100656.84;6239123;28;20041;-76
2022/07/25 05:14:31;;;;;;;3.38;1.98;;;;;;;20.56;72.48;100651.91;6248190;28;20069;-76
2022/07/25 05:17:32;;;;;;;2.88;1.83;;;;;;;20.66;71.41;100642.00;6248557;28;20052;-75
2022/07/25 05:20:34;;;;;;;2.78;2.10;;;;;;;20.73;70.78;100640.41;6244664;28;20052;-75
2022/07/25 05:23:36;;;;;;;3.20;2.00;;;;;;;20.85;69.72;100643.69;6239228;28;20052;-76
2022/07/25 05:26:38;;;;;;;2.65;1.88;;;;;;;21.05;67.17;100647.09;6239168;28;20663;-75
2022/07/25 05:29:39;;;;;;;3.08;2.08;;;;;;;21.15;66.65;100647.84;6239227;28;20039;-76
2022/07/25 05:32:41;;;;;;;3.55;2.10;;;;;;;21.27;66.05;100642.13;6199243;28;20069;-75
2022/07/25 05:35:42;;;;;;;3.97;2.05;;;;;;;21.38;65.32;100633.03;6199244;28;20498;-75
2022/07/25 05:38:45;;;;;;;2.65;1.88;;;;;;;21.55;63.90;100635.88;6198941;28;20046;-76
2022/07/25 05:41:46;;;;;;;3.30;2.20;;;;;;;21.66;64.33;100631.09;6198498;28;20058;-76
2022/07/25 05:44:48;;;;;;;2.42;1.80;;;;;;;21.72;64.10;100622.44;6198933;28;20529;-75
2022/07/25 05:47:49;;;;;;;6.15;2.03;;;;;;;21.87;62.86;100620.03;6203729;28;20046;-75
2022/07/25 05:50:50;;;;;;;3.95;2.55;;;;;;;22.09;62.23;100617.81;6222277;28;20416;-76
2022/07/25 05:53:53;;;;;;;3.30;2.17;;;;;;;22.20;60.87;100617.56;6211935;28;20053;-75
2022/07/25 05:56:55;;;;;;;2.22;1.95;;;;;;;22.37;60.66;100613.94;6208828;28;20050;-75
2022/07/25 05:59:56;;;;;;;3.10;2.05;;;;;;;22.44;61.34;100620.34;6218929;28;20079;-75
2022/07/25 06:02:59;;;;;;;2.97;2.35;;;;;;;22.49;60.93;100611.81;6210260;28;20462;-76
2022/07/25 06:06:00;;;;;;;3.78;2.40;;;;;;;22.60;60.57;100608.00;6210190;28;20050;-76
2022/07/25 06:09:04;;;;;;;5.10;1.80;;;;;;;22.72;59.78;100602.19;6206985;28;20057;-75
2022/07/25 06:12:06;;;;;;;2.50;2.00;;;;;;;22.87;59.33;100602.38;6198993;28;20046;-76
2022/07/25 06:15:08;;;;;;;3.10;1.90;;;;;;;22.98;59.02;100596.72;6198573;28;20046;-76
2022/07/25 06:18:09;;;;;;;2.95;1.92;;;;;;;23.03;59.19;100594.38;6198948;28;20541;-76
2022/07/25 06:21:10;;;;;;;2.80;2.05;;;;;;;23.07;59.35;100602.06;6198775;28;20050;-76
2022/07/25 06:24:13;;;;;;;3.25;1.88;;;;;;;23.04;60.36;100595.22;6217009;28;20484;-75
2022/07/25 06:27:15;;;;;;;3.05;2.30;;;;;;;23.06;61.16;100595.88;6223179;28;20062;-75
2022/07/25 06:30:16;;;;;;;2.22;1.85;;;;;;;23.08;61.27;100587.69;6222260;28;20062;-76
2022/07/25 06:33:17;;;;;;;3.05;2.30;;;;;;;23.14;60.62;100587.84;6222867;28;20060;-74
2022/07/25 06:36:19;;;;;;;3.63;2.35;;;;;;;23.16;61.21;100587.66;6222340;28;20045;-76
2022/07/25 06:39:21;;;;;;;3.45;2.40;;;;;;;23.12;61.99;100581.81;6222137;28;20046;-75
2022/07/25 06:42:23;;;;;;;3.45;2.20;;;;;;;23.10;63.05;100596.38;6222022;28;20046;-75
2022/07/25 06:45:24;;;;;;;2.92;2.13;;;;;;;23.04;63.68;100588.00;6222064;28;20046;-75
2022/07/25 06:48:25;;;;;;;2.78;1.85;;;;;;;23.01;63.59;100579.47;6221780;28;20054;-76
2022/07/25 06:51:27;;;;;;;6.20;2.40;;;;;;;23.00;64.15;100583.16;6219947;28;20061;-76
2022/07/25 06:54:30;;;;;;;3.75;1.83;;;;;;;23.04;64.08;100582.66;6233060;28;20042;-75
2022/07/25 06:57:31;;;;;;;3.72;2.42;;;;;;;23.09;64.40;100576.78;6234793;28;20054;-75
2022/07/25 07:00:32;;;;;;;3.08;2.00;;;;;;;23.17;63.68;100578.66;6236743;28;20504;-75
2022/07/25 07:03:36;;;;;;;3.78;2.50;;;;;;;23.31;62.07;100571.78;6229066;28;20050;-77
2022/07/25 07:06:38;;;;;;;3.30;2.40;;;;;;;23.48;60.88;100568.91;6238531;28;20045;-76
2022/07/25 07:09:41;;;;;;;4.00;2.42;;;;;;;23.67;60.47;100575.75;6200620;28;20050;-76
2022/07/25 07:12:43;;;;;;;2.83;2.17;;;;;;;23.81;60.77;100574.22;6202605;28;20445;-76
2022/07/25 07:15:48;;;;;;;3.15;2.45;;;;;;;23.94;60.76;100562.94;6201575;28;20046;-76
2022/07/25 07:18:49;;;;;;;4.07;2.63;;;;;;;24.08;59.83;100561.38;6220252;28;20050;-76
2022/07/25 07:21:50;;;;;;;4.90;2.20;;;;;;;24.35;57.84;100558.22;6236440;28;20053;-76
2022/07/25 07:24:53;;;;;;;3.67;2.53;;;;;;;24.52;58.05;100551.75;6245295;28;20076;-76
2022/07/25 07:27:54;;;;;;;3.13;2.35;;;;;;;24.67;58.29;100553.72;6242558;28;20052;-76
2022/07/25 07:30:56;;;;;;;3.40;2.40;;;;;;;24.78;56.84;100537.97;6236595;28;20053;-76
2022/07/25 07:33:58;;;;;;;3.25;2.20;;;;;;;24.94;55.65;100537.03;6235113;28;20060;-75
2022/07/25 07:36:59;;;;;;;4.88;2.53;;;;;;;25.08;53.00;100537.31;6234114;28;21492;-74
2022/07/25 07:40:02;;;;;;;3.25;2.17;;;;;;;25.15;53.38;100539.06;6228973;28;20062;-75
2022/07/25 07:43:03;;;;;;;2.83;1.90;;;;;;;25.23;53.27;100535.47;6225935;28;20049;-76
2022/07/25 07:46:05;;;;;;;4.40;2.72;;;;;;;25.21;53.50;100535.66;6225980;28;20057;-76
2022/07/25 07:49:06;;;;;;;4.32;2.40;;;;;;;25.22;53.67;100533.81;6233529;28;20041;-77
2022/07/25 07:52:07;;;;;;;4.45;2.13;;;;;;;25.36;51.25;100535.69;6246066;28;20421;-76
2022/07/25 07:58:30;;;;;;;3.65;2.72;;;;;;;25.60;49.44;100526.50;6250242;28;20136;-76
2022/07/25 08:01:31;;;;;;;3.28;2.33;;;;;;;25.69;49.58;100519.19;6229864;28;20045;-76
2022/07/25 08:04:32;;;;;;;3.38;2.15;;;;;;;25.83;48.84;100515.69;6232641;28;20053;-76
2022/07/25 08:07:34;;;;;;;3.30;1.75;;;;;;;25.97;48.52;100511.28;6241763;28;20053;-77
2022/07/25 08:10:38;;;;;;;3.20;2.60;;;;;;;26.17;48.53;100508.84;6249988;28;20413;-75
2022/07/25 08:13:40;;;;;;;3.70;2.33;;;;;;;26.40;46.22;100508.69;6249096;28;20049;-75
2022/07/25 08:16:41;;;;;;;6.45;2.25;;;;;;;26.58;45.06;100497.50;6250468;28;20498;-75
2022/07/25 08:19:42;;;;;;;4.25;2.53;;;;;;;26.69;44.22;100494.28;6249731;28;20053;-75
2022/07/25 08:22:46;;;;;;;3.58;2.30;;;;;;;26.79;43.98;100497.50;6241515;28;20072;-76
2022/07/25 08:25:49;;;;;;;2.60;2.20;;;;;;;26.89;44.74;100491.75;6242506;28;20049;-76
2022/07/25 08:28:50;;;;;;;5.82;2.60;;;;;;;26.96;44.21;100492.66;6245249;28;20049;-76
2022/07/25 08:31:51;;;;;;;4.60;2.28;;;;;;;27.00;45.13;100494.78;6224585;28;20125;-77
2022/07/25 08:34:53;;;;;;;3.85;2.25;;;;;;;26.93;44.75;100490.34;6224853;28;20050;-77
2022/07/25 08:37:55;;;;;;;3.30;2.25;;;;;;;26.79;44.10;100476.75;6225035;28;20186;-77
2022/07/25 08:40:58;;;;;;;3.80;2.47;;;;;;;26.79;45.44;100479.44;6220056;28;20050;-77
2022/07/25 08:44:01;;;;;;;4.13;2.72;;;;;;;26.81;44.95;100479.28;6241055;28;20067;-76
2022/07/25 08:47:03;;;;;;;3.03;2.13;;;;;;;26.77;45.69;100478.81;6248840;28;20049;-76
2022/07/25 08:50:07;;;;;;;4.10;2.30;;;;;;;26.89;44.88;100472.88;6249277;28;20054;-77
2022/07/25 08:53:08;;;;;;;3.08;2.13;;;;;;;27.00;44.08;100475.06;6249312;28;20049;-77
2022/07/25 08:56:11;;;;;;;6.05;2.83;;;;;;;27.06;45.27;100472.41;6249503;28;20046;-76
2022/07/25 08:59:12;;;;;;;3.28;2.35;;;;;;;27.34;44.30;100468.88;6245536;28;20181;-74
2022/07/25 09:02:14;;;;;;;3.28;2.58;;;;;;;27.48;44.32;100462.56;6224117;28;20061;-76
2022/07/25 09:05:17;;;;;;;4.82;2.92;;;;;;;27.59;44.22;100469.25;6224346;28;20046;-74
2022/07/25 09:08:18;;;;;;;2.95;1.90;;;;;;;27.70;42.66;100457.88;6223747;28;20050;-76
2022/07/25 09:11:30;;;;;;;3.10;2.50;;;;;;;27.80;43.24;100462.94;6224330;28;20494;-76
2022/07/25 09:14:40;;;;;;;3.88;2.30;;;;;;;27.74;43.63;100461.03;6224058;28;20414;-76
2022/07/25 09:17:50;;;;;;;3.30;2.20;;;;;;;27.82;43.09;100455.47;6224369;28;20042;-77
2022/07/25 09:20:55;;;;;;;4.57;2.13;;;;;;;27.88;43.84;100453.81;6227982;28;20038;-76
2022/07/25 09:23:59;;;;;;;3.00;2.28;;;;;;;27.89;42.94;100453.63;6245590;28;20050;-75
2022/07/25 09:27:09;;;;;;;4.57;2.30;;;;;;;27.87;42.55;100452.16;6236830;28;20428;-76
2022/07/25 09:30:13;;;;;;;3.92;2.33;;;;;;;27.92;42.55;100445.09;6234043;28;20391;-74
2022/07/25 09:33:14;;;;;;;2.35;2.00;;;;;;;28.02;41.88;100440.19;6199807;28;20514;-77
2022/07/25 09:36:15;;;;;;;4.20;2.50;;;;;;;27.98;42.66;100436.22;6200937;28;20057;-77
2022/07/25 09:39:17;;;;;;;2.85;2.17;;;;;;;27.99;42.42;100435.16;6211628;28;20129;-77
2022/07/25 09:42:25;;;;;;;6.32;2.67;;;;;;;28.11;42.04;100426.47;6224055;28;20071;-75
2022/07/25 09:45:27;;;;;;;3.83;2.30;;;;;;;28.19;42.80;100434.38;6223120;28;20050;-76
2022/07/25 09:48:28;;;;;;;4.00;2.75;;;;;;;28.35;42.39;100436.75;6237584;28;20417;-76
2022/07/25 09:51:30;;;;;;;3.65;2.08;;;;;;;28.43;41.19;100430.28;6247591;28;20041;-77
2022/07/25 09:54:32;;;;;;;4.70;2.90;;;;;;;28.41;41.06;100426.97;6231325;28;20056;-76
2022/07/25 09:57:35;;;;;;;3.83;2.53;;;;;;;28.49;41.80;100424.06;6222130;28;20053;-76
2022/07/25 10:00:39;;;;;;;3.38;2.28;;;;;;;28.52;40.80;100415.53;6230323;28;20046;-75
2022/07/25 10:03:50;;;;;;;3.38;2.15;;;;;;;28.62;39.65;100418.66;6229167;28;20045;-74
2022/07/25 10:07:03;;;;;;;4.40;2.85;;;;;;;28.61;40.46;100418.84;6247136;28;20056;-75
2022/07/25 10:10:05;;;;;;;4.15;2.40;;;;;;;28.54;40.87;100414.28;6247076;28;20134;-75
2022/07/25 10:13:12;;;;;;;3.42;2.05;;;;;;;28.54;41.45;100425.09;6235143;28;20042;-75
2022/07/25 10:16:16;;;;;;;4.43;2.67;;;;;;;28.50;40.88;100426.56;6238825;28;20131;-75
2022/07/25 10:19:35;;;;;;;3.28;2.17;;;;;;;28.42;41.65;100426.75;6246709;28;20119;-75
2022/07/25 10:22:39;;;;;;;6.50;2.45;;;;;;;28.38;41.08;100416.56;6246935;28;20049;-76
2022/07/25 10:25:40;;;;;;;4.47;2.80;;;;;;;28.55;40.48;100423.22;6246969;28;20053;-76
2022/07/25 10:28:46;;;;;;;3.25;2.22;;;;;;;28.58;40.98;100427.41;6243670;28;20489;-75
2022/07/25 10:31:47;;;;;;;7.40;2.28;;;;;;;28.62;40.85;100431.38;6236103;28;20512;-75
2022/07/25 10:34:52;;;;;;;4.57;2.38;;;;;;;28.76;40.41;100430.31;6246191;28;20136;-76
2022/07/25 10:37:55;;;;;;;3.60;2.72;;;;;;;28.89;41.05;100426.75;6246588;28;20052;-75
2022/07/25 10:41:01;;;;;;;4.25;2.65;;;;;;;28.90;41.90;100428.44;6246673;28;20053;-75
2022/07/25 10:44:04;;;;;;;4.57;2.75;;;;;;;28.93;42.00;100418.00;6246637;28;20053;-75
2022/07/25 10:47:06;;;;;;;4.65;2.90;;;;;;;28.98;42.04;100429.09;6246444;28;20141;-75
2022/07/25 10:50:11;;;;;;;4.50;2.45;;;;;;;29.08;41.94;100417.00;6246453;28;20050;-75
2022/07/25 10:53:12;;;;;;;5.13;2.38;;;;;;;29.08;42.13;100431.34;6246540;28;20050;-75
2022/07/25 10:56:15;;;;;;;4.10;2.70;;;;;;;29.16;42.14;100424.88;6246285;28;20046;-76
2022/07/25 10:59:26;;;;;;;5.00;2.90;;;;;;;29.20;41.21;100413.41;6246670;28;20046;-75
2022/07/25 11:02:28;;;;;;;4.20;2.70;;;;;;;29.17;41.23;100418.44;6221645;28;20058;-75
2022/07/25 11:05:29;;;;;;;3.88;2.60;;;;;;;29.01;42.17;100403.47;6223629;28;20046;-77
2022/07/25 11:08:31;;;;;;;3.67;2.55;;;;;;;28.85;42.71;100395.78;6229947;28;20046;-77
2022/07/25 11:11:35;;;;;;;6.15;3.38;;;;;;;28.71;43.03;100386.84;6230982;28;20176;-76
2022/07/25 11:14:41;;;;;;;3.00;2.28;;;;;;;28.92;41.98;100397.41;6237855;28;20041;-75
2022/07/25 11:17:50;;;;;;;3.95;2.65;;;;;;;29.22;40.98;100399.69;6246122;28;20508;-77
2022/07/25 11:20:58;;;;;;;6.63;2.88;;;;;;;29.24;40.88;100398.41;6245374;28;20053;-76
2022/07/25 11:24:00;;;;;;;2.58;2.20;;;;;;;29.34;40.27;100400.66;6246012;28;20055;-76
2022/07/25 11:27:01;;;;;;;3.97;2.63;;;;;;;29.33;40.08;100405.25;6246601;28;20056;-76
2022/07/25 11:30:08;;;;;;;3.38;2.38;;;;;;;29.66;40.42;100401.63;6243075;28;20046;-76
2022/07/25 11:33:14;;;;;;;3.78;2.50;;;;;;;30.16;38.61;100393.69;6197749;28;20073;-76
2022/07/25 11:36:17;;;;;;;4.22;2.55;;;;;;;30.51;39.28;100396.72;6197219;28;20509;-76
2022/07/25 11:39:18;;;;;;;4.95;2.50;;;;;;;30.92;37.32;100398.06;6197797;28;20057;-76
2022/07/25 11:42:20;;;;;;;5.00;2.42;;;;;;;31.24;36.60;100392.50;6197098;28;20069;-77
2022/07/25 11:45:24;;;;;;;3.00;2.25;;;;;;;31.53;36.38;100402.63;6197665;28;20054;-75
2022/07/25 11:48:31;;;;;;;3.63;2.53;;;;;;;31.75;36.11;100393.97;6200073;28;20050;-76
2022/07/25 11:51:37;;;;;;;4.25;2.70;;;;;;;31.93;36.24;100380.41;6201710;28;20054;-76
2022/07/25 11:54:38;;;;;;;3.80;2.47;;;;;;;31.77;36.16;100390.00;6201589;28;20418;-77
2022/07/25 11:57:43;;;;;;;3.55;2.55;;;;;;;31.45;36.93;100386.66;6202010;28;20057;-77
2022/07/25 12:00:47;;;;;;;3.33;2.53;;;;;;;31.22;36.52;100395.44;6203332;28;20057;-77
2022/07/25 12:03:49;;;;;;;4.45;2.58;;;;;;;31.05;36.67;100392.50;6201607;28;20050;-76
2022/07/25 12:06:50;;;;;;;4.68;2.53;;;;;;;30.86;38.00;100379.97;6201477;28;20051;-76
2022/07/25 12:09:56;;;;;;;3.42;2.70;;;;;;;30.67;38.02;100399.94;6201718;28;20145;-77
2022/07/25 12:13:00;;;;;;;3.42;2.25;;;;;;;30.50;37.84;100391.53;6216151;28;20049;-77
2022/07/25 12:16:02;;;;;;;4.10;2.45;;;;;;;30.25;37.48;100380.66;6239862;28;20179;-77
2022/07/25 12:19:04;;;;;;;2.50;2.10;;;;;;;29.98;39.35;100385.41;6249625;28;20061;-76
2022/07/25 12:22:06;;;;;;;3.50;2.00;;;;;;;29.82;39.07;100381.34;6249417;28;20048;-77
2022/07/25 12:25:08;;;;;;;3.60;2.13;;;;;;;29.77;38.81;100386.56;6236810;28;20120;-77
2022/07/25 12:28:10;;;;;;;4.65;2.05;;;;;;;29.73;38.23;100385.34;6249609;28;20045;-76
2022/07/25 12:31:13;;;;;;;3.67;2.35;;;;;;;29.73;39.19;100390.75;6245290;28;20048;-77
2022/07/25 12:34:14;;;;;;;4.78;2.60;;;;;;;29.61;39.26;100387.88;6200338;28;20061;-76
2022/07/25 12:37:16;;;;;;;2.53;2.05;;;;;;;29.52;39.30;100387.28;6200648;28;20050;-77
2022/07/25 12:40:18;;;;;;;3.53;2.30;;;;;;;29.48;38.93;100390.66;6200384;28;20053;-75
2022/07/25 12:43:19;;;;;;;2.78;2.17;;;;;;;29.38;39.51;100380.25;6200623;28;20061;-76
2022/07/25 12:46:21;;;;;;;3.00;2.35;;;;;;;29.31;40.67;100385.69;6200165;28;20130;-77
2022/07/25 12:49:23;;;;;;;3.17;2.20;;;;;;;29.33;39.82;100391.72;6200035;28;20058;-77
2022/07/25 12:52:24;;;;;;;6.15;3.03;;;;;;;29.42;38.90;100386.06;6200044;28;20251;-76
2022/07/25 12:55:26;;;;;;;3.83;2.40;;;;;;;29.37;40.18;100386.72;6199925;28;20054;-76
2022/07/25 12:58:27;;;;;;;3.13;2.20;;;;;;;29.45;40.38;100385.66;6199716;28;20054;-77
2022/07/25 13:01:30;;;;;;;2.83;2.13;;;;;;;29.71;41.11;100384.75;6210308;28;20508;-77
2022/07/25 13:04:32;;;;;;;3.22;2.45;;;;;;;30.50;38.54;100367.94;6224159;28;20057;-77
2022/07/25 13:07:34;;;;;;;2.83;2.10;;;;;;;30.68;38.62;100369.88;6223893;28;20050;-77
2022/07/25 13:10:35;;;;;;;3.15;2.28;;;;;;;31.13;39.04;100366.13;6223870;28;20054;-77
2022/07/25 13:13:36;;;;;;;4.72;2.60;;;;;;;31.68;36.30;100360.66;6223966;28;20056;-77
2022/07/25 13:16:39;;;;;;;4.53;2.72;;;;;;;32.17;37.14;100351.38;6223856;28;20050;-77
2022/07/25 13:19:40;;;;;;;4.10;2.70;;;;;;;32.53;35.15;100364.00;6223639;28;20081;-76
2022/07/25 13:22:42;;;;;;;6.53;3.13;;;;;;;32.61;35.40;100357.34;6223609;28;20457;-77
2022/07/25 13:25:43;;;;;;;4.00;2.42;;;;;;;32.63;34.29;100363.41;6223652;28;20057;-77
2022/07/25 13:28:45;;;;;;;5.25;2.90;;;;;;;32.73;34.33;100365.53;6223681;28;20054;-77
2022/07/25 13:31:47;;;;;;;2.47;2.15;;;;;;;32.80;34.10;100358.91;6221704;28;20413;-77
2022/07/25 13:34:49;;;;;;;3.65;2.42;;;;;;;32.84;35.23;100351.09;6223502;28;20437;-77
2022/07/25 13:37:51;;;;;;;5.35;2.50;;;;;;;32.82;34.13;100348.59;6223584;28;20053;-77
2022/07/25 13:40:52;;;;;;;6.78;3.30;;;;;;;33.13;34.27;100356.66;6223199;28;20050;-77
2022/07/25 13:43:53;;;;;;;4.95;2.45;;;;;;;33.24;33.23;100353.88;6222489;28;20437;-77
2022/07/25 13:46:57;;;;;;;3.95;2.38;;;;;;;33.24;33.72;100340.25;6222732;28;20676;-77
2022/07/25 13:49:58;;;;;;;2.58;2.13;;;;;;;33.42;34.31;100339.25;6222920;28;20123;-77
2022/07/25 13:53:00;;;;;;;4.35;2.95;;;;;;;33.23;34.29;100335.88;6222926;28;20057;-77
2022/07/25 13:56:02;;;;;;;3.15;2.03;;;;;;;33.44;33.36;100326.28;6222968;28;20405;-77
2022/07/25 13:59:03;;;;;;;6.70;2.67;;;;;;;33.42;32.97;100350.16;6223512;28;20057;-78
2022/07/25 14:02:06;;;;;;;2.90;2.40;;;;;;;33.44;33.36;100328.16;6223615;28;20046;-78
2022/07/25 14:05:08;;;;;;;3.70;2.42;;;;;;;33.41;33.12;100336.78;6224334;28;20054;-79
2022/07/25 14:08:10;;;;;;;4.22;2.67;;;;;;;33.20;33.34;100336.34;6223541;28;20049;-77
2022/07/25 14:11:11;;;;;;;4.13;2.63;;;;;;;32.86;34.73;100327.19;6222294;28;20399;-77